Time;durP1;ratioP1;P1;durP2;ratioP2;P2;SDS_P1;SDS_P2;PMS_P1;PMS_P2;Temp;Humidity;BMP_temperature;BMP_pressure;BME280_temperature;BME280_humidity;BME280_pressure;Samples;Min_cycle;Max_cycle;Signal;HPM_P1;HPM_P2
2022/06/13 00:00:19;;;;;;;1.87;1.70;;;18.00;99.90;;;;;;7361098;19;20894;-77
2022/06/13 00:02:45;;;;;;;1.80;1.70;;;18.00;99.90;;;;;;7361134;19;20862;-77
2022/06/13 00:05:10;;;;;;;2.08;1.88;;;18.00;99.90;;;;;;7358545;19;20344;-76
2022/06/13 00:07:36;;;;;;;3.00;2.50;;;18.00;99.90;;;;;;7361022;19;20296;-76
2022/06/13 00:10:01;;;;;;;3.47;2.00;;;18.00;99.90;;;;;;7362217;19;20375;-77
2022/06/13 00:12:27;;;;;;;2.28;2.08;;;17.90;99.90;;;;;;7358773;19;20359;-77
2022/06/13 00:14:53;;;;;;;2.33;1.80;;;17.90;99.90;;;;;;7362053;19;20935;-77
2022/06/13 00:17:18;;;;;;;2.43;1.93;;;17.80;99.90;;;;;;7361848;19;20321;-76
2022/06/13 00:19:44;;;;;;;2.00;1.90;;;17.70;99.90;;;;;;7363779;19;20336;-76
2022/06/13 00:22:09;;;;;;;4.17;2.10;;;17.70;99.90;;;;;;7358361;19;20355;-77
2022/06/13 00:24:35;;;;;;;2.47;2.23;;;17.70;99.90;;;;;;7362796;19;20313;-76
2022/06/13 00:27:01;;;;;;;3.63;2.30;;;17.70;99.90;;;;;;7357991;19;20384;-76
2022/06/13 00:29:26;;;;;;;1.80;1.70;;;17.70;99.90;;;;;;7364125;19;20416;-76
2022/06/13 00:31:52;;;;;;;1.97;1.80;;;17.60;99.90;;;;;;7357207;19;20329;-77
2022/06/13 00:34:17;;;;;;;2.20;2.10;;;17.60;99.90;;;;;;7358207;19;20878;-76
2022/06/13 00:36:43;;;;;;;2.00;1.90;;;17.60;99.90;;;;;;7360328;19;20379;-77
2022/06/13 00:39:09;;;;;;;1.97;1.87;;;17.50;99.90;;;;;;7365136;19;20312;-77
2022/06/13 00:41:36;;;;;;;2.88;2.28;;;17.50;99.90;;;;;;7358700;19;20321;-77
2022/06/13 00:44:01;;;;;;;1.90;1.80;;;17.50;99.90;;;;;;7362953;19;20400;-77
2022/06/13 00:46:32;;;;;;;2.83;2.42;;;17.50;99.90;;;;;;7361127;19;20440;-76
2022/06/13 00:49:03;;;;;;;2.88;1.88;;;17.50;99.90;;;;;;7360155;19;20328;-77
2022/06/13 00:51:30;;;;;;;2.58;2.20;;;17.50;99.90;;;;;;7361798;19;20352;-76
2022/06/13 00:53:55;;;;;;;2.33;2.13;;;17.40;99.90;;;;;;7359407;19;20344;-76
2022/06/13 00:56:23;;;;;;;2.53;2.33;;;17.40;99.90;;;;;;7360432;19;20362;-76
2022/06/13 00:58:52;;;;;;;3.45;2.50;;;17.30;99.90;;;;;;7362947;19;20306;-76
2022/06/13 01:01:18;;;;;;;2.53;2.10;;;17.20;99.90;;;;;;7359815;19;20363;-76
2022/06/13 01:03:44;;;;;;;2.72;2.50;;;17.20;99.90;;;;;;7361723;19;20437;-77
2022/06/13 01:06:10;;;;;;;2.90;2.10;;;17.10;99.90;;;;;;7359437;19;20435;-77
2022/06/13 01:08:36;;;;;;;2.72;2.22;;;17.00;99.90;;;;;;7362958;19;20370;-77
2022/06/13 01:11:17;;;;;;;2.13;1.92;;;17.00;99.90;;;;;;7358242;19;20348;-76
2022/06/13 01:14:07;;;;;;;2.30;2.10;;;17.00;99.90;;;;;;7260117;19;2004379;-76
2022/06/13 01:16:47;;;;;;;3.92;2.50;;;16.90;99.90;;;;;;7364727;19;20347;-77
2022/06/13 01:19:58;;;;;;;2.92;2.08;;;16.80;99.90;;;;;;7369351;19;20696;-77
2022/06/13 01:22:34;;;;;;;2.40;2.20;;;16.70;99.90;;;;;;7159451;19;2004289;-78
2022/06/13 01:25:14;;;;;;;2.72;2.30;;;16.60;99.90;;;;;;7356028;19;20379;-78
2022/06/13 01:28:00;;;;;;;2.65;2.30;;;16.50;99.90;;;;;;7361885;19;20325;-78
2022/06/13 01:30:57;;;;;;;3.03;2.40;;;16.50;99.90;;;;;;7256955;19;2004218;-78
2022/06/13 01:33:28;;;;;;;3.58;2.35;;;16.40;99.90;;;;;;7259504;19;2004355;-78
2022/06/13 01:36:01;;;;;;;2.30;2.10;;;16.20;99.90;;;;;;7358369;19;20439;-77
2022/06/13 01:39:04;;;;;;;2.30;2.00;;;16.10;99.90;;;;;;7367033;19;20332;-77
2022/06/13 01:41:41;;;;;;;3.30;2.88;;;16.10;99.90;;;;;;7257501;19;2004512;-77
2022/06/13 01:44:11;;;;;;;2.45;2.25;;;16.10;99.90;;;;;;7363841;19;20401;-78
2022/06/13 01:46:41;;;;;;;3.47;2.10;;;16.00;99.90;;;;;;7359589;19;20312;-78
2022/06/13 01:49:30;;;;;;;2.58;2.38;;;16.00;99.90;;;;;;7358630;19;20348;-78
2022/06/13 01:52:00;;;;;;;4.00;2.22;;;16.00;99.90;;;;;;7257915;19;2006517;-78
2022/06/13 01:54:28;;;;;;;4.70;2.58;;;15.90;99.90;;;;;;7359567;19;20356;-78
2022/06/13 01:57:00;;;;;;;3.28;2.50;;;15.80;99.90;;;;;;7359026;19;20318;-78
2022/06/13 01:59:36;;;;;;;2.45;2.25;;;15.80;99.90;;;;;;7360894;19;20817;-78
2022/06/13 02:02:06;;;;;;;2.38;2.20;;;15.80;99.90;;;;;;7356096;19;20365;-78
2022/06/13 02:04:41;;;;;;;2.72;2.05;;;15.80;99.90;;;;;;7360438;19;20337;-78
2022/06/13 02:07:10;;;;;;;4.00;2.28;;;15.80;99.90;;;;;;7356960;19;20409;-78
2022/06/13 02:09:42;;;;;;;3.08;2.10;;;15.80;99.90;;;;;;7361091;19;20907;-78
2022/06/13 02:12:08;;;;;;;2.28;2.08;;;15.90;99.90;;;;;;7355660;19;20364;-78
2022/06/13 02:14:42;;;;;;;2.40;2.20;;;15.80;99.90;;;;;;7359560;19;20746;-78
2022/06/13 02:17:21;;;;;;;2.25;2.10;;;15.80;99.90;;;;;;7358259;19;20898;-77
2022/06/13 02:19:59;;;;;;;5.30;2.50;;;15.70;99.90;;;;;;7258990;19;2005128;-77
2022/06/13 02:22:41;;;;;;;4.78;2.15;;;15.70;99.90;;;;;;7358164;19;20337;-77
2022/06/13 02:25:50;;;;;;;2.92;2.40;;;15.80;99.90;;;;;;7355576;19;20686;-77
2022/06/13 02:28:28;;;;;;;2.55;2.35;;;15.70;99.90;;;;;;7157117;19;2004641;-77
2022/06/13 02:31:23;;;;;;;1.95;1.80;;;15.70;99.90;;;;;;7357805;19;20683;-77
2022/06/13 02:34:00;;;;;;;3.10;2.00;;;15.70;99.90;;;;;;7255943;19;2005079;-77
2022/06/13 02:37:04;;;;;;;2.72;2.30;;;15.60;99.90;;;;;;7358158;19;20751;-77
2022/06/13 02:39:37;;;;;;;4.20;2.50;;;15.50;99.90;;;;;;7258287;19;2004635;-78
2022/06/13 02:42:46;;;;;;;2.33;2.08;;;15.40;99.90;;;;;;7361644;19;20337;-77
2022/06/13 02:45:21;;;;;;;2.35;1.90;;;15.50;99.90;;;;;;7154991;19;2005795;-77
2022/06/13 02:47:55;;;;;;;3.05;1.80;;;15.50;99.90;;;;;;7259190;19;2004213;-78
2022/06/13 02:50:38;;;;;;;2.20;1.90;;;15.60;99.90;;;;;;7358725;19;20424;-77
2022/06/13 02:53:08;;;;;;;2.75;1.98;;;15.70;99.90;;;;;;7358964;19;20392;-77
2022/06/13 02:55:41;;;;;;;2.10;1.90;;;15.70;99.90;;;;;;7359702;19;20808;-78
2022/06/13 02:58:24;;;;;;;3.75;1.95;;;15.70;99.90;;;;;;7359301;19;20343;-78
2022/06/13 03:00:58;;;;;;;2.47;1.88;;;15.80;99.90;;;;;;7255414;19;2004359;-78
2022/06/13 03:03:30;;;;;;;2.80;2.00;;;15.90;99.90;;;;;;7359388;19;20360;-78
2022/06/13 03:06:09;;;;;;;3.60;1.83;;;15.80;99.90;;;;;;7355257;19;20372;-78
2022/06/13 03:08:43;;;;;;;3.10;1.90;;;15.90;99.90;;;;;;7363892;19;20321;-78
2022/06/13 03:11:34;;;;;;;2.75;1.90;;;15.80;99.90;;;;;;7357724;19;20348;-78
2022/06/13 03:14:19;;;;;;;3.72;2.03;;;15.90;99.90;;;;;;7259480;19;2004382;-78
2022/06/13 03:17:05;;;;;;;4.22;2.03;;;15.90;99.90;;;;;;7339806;19;20349;-78
2022/06/13 03:19:38;;;;;;;2.13;1.80;;;15.90;99.90;;;;;;7362117;19;20348;-78
2022/06/13 03:22:15;;;;;;;2.95;2.05;;;15.90;99.90;;;;;;7354694;19;20308;-78
2022/06/13 03:24:42;;;;;;;1.80;1.70;;;16.00;99.90;;;;;;7362986;19;20312;-78
2022/06/13 03:27:23;;;;;;;2.67;2.03;;;16.00;99.90;;;;;;7360970;19;20329;-78
2022/06/13 03:30:10;;;;;;;3.03;1.98;;;16.00;99.90;;;;;;7257017;19;2010813;-78
2022/06/13 03:32:41;;;;;;;3.87;1.90;;;16.10;99.90;;;;;;7361501;19;21278;-78
2022/06/13 03:35:10;;;;;;;3.40;1.80;;;16.10;99.90;;;;;;7356655;19;20337;-78
2022/06/13 03:37:38;;;;;;;3.20;2.10;;;16.10;99.90;;;;;;7339377;19;20330;-78
2022/06/13 03:40:06;;;;;;;2.20;1.63;;;16.10;99.90;;;;;;7360778;19;20346;-78
2022/06/13 03:42:49;;;;;;;3.17;1.98;;;16.10;99.90;;;;;;7357768;19;20360;-78
2022/06/13 03:45:42;;;;;;;2.37;1.80;;;16.10;99.90;;;;;;7359678;19;20405;-78
2022/06/13 03:48:11;;;;;;;1.80;1.50;;;16.10;99.90;;;;;;7260215;19;2011290;-75
2022/06/13 03:50:46;;;;;;;2.30;2.08;;;16.20;99.90;;;;;;7361642;19;20347;-78
2022/06/13 03:53:26;;;;;;;3.50;1.83;;;16.20;99.90;;;;;;7356486;19;20334;-77
2022/06/13 03:55:51;;;;;;;2.90;1.70;;;16.20;99.90;;;;;;7250817;19;2004508;-77
2022/06/13 03:58:23;;;;;;;3.10;1.80;;;16.30;99.90;;;;;;7358287;19;20340;-77
2022/06/13 04:00:53;;;;;;;6.07;1.90;;;16.20;99.90;;;;;;7349806;19;20312;-77
2022/06/13 04:03:19;;;;;;;2.25;1.77;;;16.20;99.90;;;;;;7353437;19;20320;-78
2022/06/13 04:06:04;;;;;;;3.40;1.70;;;16.30;99.90;;;;;;7354015;19;20332;-77
2022/06/13 04:08:33;;;;;;;1.70;1.60;;;16.20;99.90;;;;;;7257115;19;2004518;-76
2022/06/13 04:11:07;;;;;;;2.97;1.60;;;16.20;99.90;;;;;;7353758;19;20403;-77
2022/06/13 04:13:35;;;;;;;2.03;1.65;;;16.30;99.90;;;;;;7354878;19;20340;-77
2022/06/13 04:16:04;;;;;;;3.67;1.70;;;16.20;99.90;;;;;;7349999;19;20761;-77
2022/06/13 04:18:50;;;;;;;3.75;1.83;;;16.20;99.90;;;;;;7357411;19;20351;-77
2022/06/13 04:21:47;;;;;;;1.97;1.63;;;16.20;99.90;;;;;;7352984;19;20602;-76
2022/06/13 04:24:26;;;;;;;2.55;1.67;;;16.20;99.90;;;;;;7254226;19;2004567;-77
2022/06/13 04:26:56;;;;;;;1.77;1.60;;;16.20;99.90;;;;;;7252566;19;2004537;-76
2022/06/13 04:29:29;;;;;;;2.70;1.70;;;16.20;99.90;;;;;;7354785;19;20312;-76
2022/06/13 04:31:58;;;;;;;4.78;1.90;;;16.30;99.90;;;;;;7345317;19;20350;-77
2022/06/13 04:34:27;;;;;;;2.17;1.70;;;16.20;99.90;;;;;;7345420;19;20858;-77
2022/06/13 04:36:54;;;;;;;1.95;1.55;;;16.30;99.90;;;;;;7353113;19;20320;-78
2022/06/13 04:39:29;;;;;;;2.75;1.70;;;16.30;99.90;;;;;;7356716;19;20331;-76
2022/06/13 04:41:55;;;;;;;2.33;1.58;;;16.40;99.90;;;;;;7350543;19;20804;-78
2022/06/13 04:44:23;;;;;;;2.30;1.52;;;16.60;99.90;;;;;;7355205;19;20333;-76
2022/06/13 04:46:48;;;;;;;2.20;1.80;;;16.70;99.90;;;;;;7353999;19;20793;-76
2022/06/13 04:49:29;;;;;;;2.83;1.77;;;16.70;99.90;;;;;;7354346;19;20337;-76
2022/06/13 04:51:55;;;;;;;2.33;1.42;;;16.60;99.90;;;;;;7253448;19;2004200;-76
2022/06/13 04:54:33;;;;;;;1.50;1.40;;;16.80;99.90;;;;;;7354704;19;20296;-75
2022/06/13 04:56:59;;;;;;;2.92;1.60;;;16.80;99.90;;;;;;7362728;19;20333;-76
2022/06/13 04:59:25;;;;;;;1.60;1.35;;;16.90;99.90;;;;;;7366431;19;20304;-75
2022/06/13 05:01:50;;;;;;;3.15;1.65;;;17.00;99.90;;;;;;7358997;19;20321;-76
2022/06/13 05:04:18;;;;;;;1.93;1.70;;;17.00;99.90;;;;;;7364042;19;20733;-76
2022/06/13 05:06:51;;;;;;;4.13;1.55;;;16.90;99.90;;;;;;7359765;19;20408;-76
2022/06/13 05:09:36;;;;;;;1.60;1.50;;;16.80;99.90;;;;;;7366578;19;20733;-76
2022/06/13 05:12:26;;;;;;;3.40;1.90;;;16.80;99.90;;;;;;7256872;19;2004412;-77
2022/06/13 05:14:59;;;;;;;3.15;1.60;;;16.80;99.90;;;;;;7260546;19;2004215;-76
2022/06/13 05:17:44;;;;;;;2.55;1.90;;;17.00;99.90;;;;;;7370680;19;20783;-79
2022/06/13 05:20:32;;;;;;;2.42;1.50;;;17.10;99.90;;;;;;7382573;19;20325;-81
2022/06/13 05:23:16;;;;;;;2.47;1.50;;;17.20;99.90;;;;;;7273329;19;2004182;-79
2022/06/13 05:25:45;;;;;;;4.28;1.63;;;17.40;99.90;;;;;;7377180;19;20386;-80
2022/06/13 05:28:13;;;;;;;2.67;1.65;;;17.60;99.90;;;;;;7378671;19;20396;-80
2022/06/13 05:30:43;;;;;;;1.83;1.63;;;17.80;99.90;;;;;;7386943;19;20336;-79
2022/06/13 05:33:12;;;;;;;3.53;2.00;;;17.90;99.90;;;;;;7382806;19;20348;-80
2022/06/13 05:35:43;;;;;;;1.75;1.65;;;18.00;99.90;;;;;;7381432;19;20812;-80
2022/06/13 05:38:16;;;;;;;3.65;1.70;;;18.00;99.90;;;;;;7382811;19;20754;-79
2022/06/13 05:40:42;;;;;;;4.20;1.67;;;18.00;99.90;;;;;;7381859;19;20292;-79
2022/06/13 05:43:10;;;;;;;3.20;1.50;;;18.00;99.90;;;;;;7379534;19;20340;-78
2022/06/13 05:45:36;;;;;;;3.03;1.77;;;18.30;99.90;;;;;;7380108;19;20341;-78
2022/06/13 05:48:02;;;;;;;2.80;1.75;;;18.50;99.90;;;;;;7380999;19;20369;-78
2022/06/13 05:50:33;;;;;;;2.50;1.70;;;18.50;99.90;;;;;;7385234;19;20478;-79
2022/06/13 05:52:59;;;;;;;2.25;1.60;;;18.60;99.90;;;;;;7388439;19;20441;-79
2022/06/13 05:55:24;;;;;;;3.13;1.90;;;18.60;99.90;;;;;;7386666;19;20341;-78
2022/06/13 05:57:50;;;;;;;2.35;1.92;;;18.70;99.90;;;;;;7387412;19;20304;-79
2022/06/13 06:00:22;;;;;;;2.13;1.48;;;18.90;99.90;;;;;;7387879;19;21222;-80
2022/06/13 06:02:48;;;;;;;3.03;1.80;;;19.10;99.90;;;;;;7387373;19;20384;-79
2022/06/13 06:05:14;;;;;;;2.13;1.90;;;19.10;99.90;;;;;;7388861;19;20296;-80
2022/06/13 06:07:39;;;;;;;2.47;1.60;;;19.40;99.90;;;;;;7387232;19;20308;-79
2022/06/13 06:10:06;;;;;;;3.67;1.80;;;19.60;99.90;;;;;;7388596;19;20317;-80
2022/06/13 06:12:31;;;;;;;2.05;1.52;;;19.70;99.90;;;;;;7388445;19;20320;-79
2022/06/13 06:14:57;;;;;;;2.90;2.10;;;20.00;99.90;;;;;;7391649;19;20679;-80
2022/06/13 06:17:22;;;;;;;3.03;1.88;;;19.80;99.90;;;;;;7388992;19;21019;-80
2022/06/13 06:19:53;;;;;;;5.50;1.90;;;20.10;99.90;;;;;;7389256;19;20376;-79
2022/06/13 06:22:19;;;;;;;3.40;1.70;;;20.10;99.90;;;;;;7284783;19;2004242;-82
2022/06/13 06:24:48;;;;;;;1.85;1.52;;;19.90;99.90;;;;;;7384959;19;20872;-81
2022/06/13 06:27:17;;;;;;;4.68;2.13;;;19.90;99.90;;;;;;7386037;19;20341;-81
2022/06/13 06:29:47;;;;;;;3.83;1.90;;;19.60;99.90;;;;;;7382896;19;20358;-80
2022/06/13 06:32:13;;;;;;;3.00;1.90;;;19.70;99.90;;;;;;7383386;19;20296;-80
2022/06/13 06:34:39;;;;;;;4.93;2.13;;;19.70;99.90;;;;;;7385931;19;20663;-80
2022/06/13 06:37:05;;;;;;;2.10;1.60;;;19.60;99.90;;;;;;7382203;19;20793;-79
2022/06/13 06:39:31;;;;;;;1.93;1.60;;;19.60;99.90;;;;;;7383351;19;20360;-79
2022/06/13 06:41:57;;;;;;;3.63;1.98;;;19.80;99.90;;;;;;7381924;19;20324;-81
2022/06/13 06:44:23;;;;;;;2.38;1.55;;;19.60;99.90;;;;;;7381521;19;20316;-81
2022/06/13 06:46:49;;;;;;;2.63;1.55;;;19.60;99.90;;;;;;7383699;19;20308;-79
2022/06/13 06:49:15;;;;;;;5.28;1.85;;;20.00;99.90;;;;;;7383638;19;20313;-79
2022/06/13 06:51:42;;;;;;;5.15;1.80;;;20.20;99.90;;;;;;7382472;19;20731;-79
2022/06/13 06:59:53;;;;;;;2.00;1.70;;;20.30;99.90;;;;;;7382855;19;20328;-79
2022/06/13 07:02:23;;;;;;;2.20;1.50;;;20.10;99.90;;;;;;7277005;19;2004178;-79
2022/06/13 07:04:53;;;;;;;3.40;1.60;;;20.00;99.90;;;;;;7382534;19;20329;-80
2022/06/13 07:07:20;;;;;;;1.63;1.40;;;20.30;99.90;;;;;;7389193;19;20321;-80
2022/06/13 07:09:46;;;;;;;2.10;1.30;;;20.50;99.90;;;;;;7386861;19;20313;-79
2022/06/13 07:12:12;;;;;;;1.65;1.40;;;20.40;99.90;;;;;;7381391;19;20356;-80
2022/06/13 07:14:38;;;;;;;1.65;1.50;;;20.40;99.90;;;;;;7378587;19;20401;-79
2022/06/13 07:17:05;;;;;;;1.55;1.45;;;20.50;99.90;;;;;;7376347;19;20355;-79
2022/06/13 07:19:31;;;;;;;1.73;1.50;;;20.60;99.90;;;;;;7388170;19;20316;-79
2022/06/13 07:21:56;;;;;;;1.52;1.42;;;20.80;99.90;;;;;;7379894;19;20856;-79
2022/06/13 07:24:22;;;;;;;1.83;1.50;;;20.90;99.90;;;;;;7378542;19;20351;-80
2022/06/13 07:26:48;;;;;;;3.13;1.60;;;21.10;99.90;;;;;;7375986;19;20344;-79
2022/06/13 07:29:16;;;;;;;2.88;1.40;;;21.00;99.90;;;;;;7378255;19;20293;-78
2022/06/13 07:31:44;;;;;;;2.88;1.60;;;21.20;99.90;;;;;;7376458;19;20824;-79
2022/06/13 07:34:15;;;;;;;1.77;1.50;;;21.00;99.90;;;;;;7376454;19;20328;-79
2022/06/13 07:36:42;;;;;;;1.83;1.60;;;20.90;99.90;;;;;;7376053;19;20309;-79
2022/06/13 07:39:08;;;;;;;3.97;1.60;;;20.90;99.90;;;;;;7378484;19;20324;-79
2022/06/13 07:41:33;;;;;;;6.30;2.97;;;20.60;99.90;;;;;;7375862;19;20357;-80
2022/06/13 07:43:59;;;;;;;2.30;1.60;;;20.60;99.90;;;;;;7378258;19;20332;-79
2022/06/13 07:46:28;;;;;;;3.33;1.75;;;20.30;99.90;;;;;;7374851;19;20336;-79
2022/06/13 07:48:53;;;;;;;4.03;1.50;;;20.10;99.90;;;;;;7375997;19;20392;-78
2022/06/13 07:51:20;;;;;;;1.65;1.40;;;20.00;99.90;;;;;;7377943;19;20506;-79
2022/06/13 07:53:46;;;;;;;2.60;1.50;;;20.20;99.90;;;;;;7376042;19;20842;-79
2022/06/13 07:56:15;;;;;;;3.25;1.80;;;20.20;99.90;;;;;;7376684;19;20341;-78
2022/06/13 07:58:42;;;;;;;4.45;1.73;;;20.60;99.90;;;;;;7377045;19;20309;-79
2022/06/13 08:01:07;;;;;;;1.92;1.30;;;20.90;99.90;;;;;;7374493;19;20971;-78
2022/06/13 08:03:33;;;;;;;2.03;1.40;;;21.10;99.90;;;;;;7377638;19;20337;-79
2022/06/13 08:05:59;;;;;;;2.10;1.60;;;21.50;99.90;;;;;;7381110;19;20377;-80
2022/06/13 08:08:25;;;;;;;2.05;1.70;;;21.60;99.90;;;;;;7380419;19;20401;-80
2022/06/13 08:10:51;;;;;;;3.10;1.40;;;21.90;99.90;;;;;;7381332;19;20666;-79
2022/06/13 08:13:18;;;;;;;1.50;1.40;;;22.00;99.90;;;;;;7379474;19;20304;-80
2022/06/13 08:15:43;;;;;;;2.20;1.58;;;22.20;99.90;;;;;;7365551;19;20317;-79
2022/06/13 08:18:10;;;;;;;5.13;1.43;;;22.40;99.90;;;;;;7395765;19;20375;-80
2022/06/13 08:20:36;;;;;;;2.65;1.40;;;22.30;99.90;;;;;;7339103;19;20296;-80
2022/06/13 08:23:03;;;;;;;4.32;1.55;;;22.10;99.90;;;;;;7387637;19;20313;-80
2022/06/13 08:25:30;;;;;;;3.80;1.55;;;22.30;99.50;;;;;;7343727;19;20344;-80
2022/06/13 08:27:56;;;;;;;3.95;1.60;;;22.20;99.70;;;;;;7382745;19;20351;-79
2022/06/13 08:30:22;;;;;;;2.28;1.58;;;22.50;99.30;;;;;;7383956;19;20311;-79
2022/06/13 08:32:48;;;;;;;1.65;1.48;;;22.60;98.80;;;;;;7384638;19;20336;-80
2022/06/13 08:35:14;;;;;;;1.63;1.50;;;22.60;98.30;;;;;;7388460;19;20309;-80
2022/06/13 08:37:40;;;;;;;1.65;1.45;;;22.80;98.30;;;;;;7389654;19;20323;-80
2022/06/13 08:40:06;;;;;;;1.57;1.27;;;22.90;97.50;;;;;;7397708;19;20332;-81
2022/06/13 08:42:45;;;;;;;1.60;1.40;;;23.40;96.50;;;;;;7404489;19;20450;-80
2022/06/13 08:45:22;;;;;;;1.67;1.55;;;23.30;95.90;;;;;;7402632;19;20344;-81
2022/06/13 08:48:07;;;;;;;1.90;1.40;;;23.50;95.90;;;;;;7350429;19;20399;-80
2022/06/13 08:51:34;;;;;;;1.30;1.20;;;24.00;95.10;;;;;;7191526;19;2004134;-80
2022/06/13 08:54:01;;;;;;;1.52;1.27;;;24.00;93.60;;;;;;7275159;19;2003738;-80
2022/06/13 08:56:31;;;;;;;2.20;1.30;;;23.70;91.50;;;;;;7389844;19;20312;-81
2022/06/13 08:59:34;;;;;;;1.40;1.05;;;23.40;90.00;;;;;;7381099;19;20486;-80
2022/06/13 09:02:44;;;;;;;1.45;1.25;;;23.50;90.60;;;;;;7289733;19;2004333;-81
2022/06/13 09:05:43;;;;;;;1.50;1.33;;;23.70;89.70;;;;;;7193130;19;2004431;-79
2022/06/13 09:08:16;;;;;;;1.45;1.30;;;24.00;90.50;;;;;;7288857;19;2004387;-79
2022/06/13 09:11:09;;;;;;;3.63;1.45;;;23.70;87.70;;;;;;7381962;19;20376;-79
2022/06/13 09:13:44;;;;;;;3.75;2.63;;;23.70;89.10;;;;;;7276808;19;2004175;-79
2022/06/13 09:16:14;;;;;;;1.88;1.50;;;23.70;87.10;;;;;;7382430;19;22161;-80
2022/06/13 09:19:01;;;;;;;2.53;1.40;;;23.50;87.30;;;;;;7387080;19;20312;-81
2022/06/13 09:21:26;;;;;;;1.85;1.30;;;23.10;81.70;;;;;;7284762;19;2004366;-80
2022/06/13 09:24:27;;;;;;;2.63;1.43;;;22.70;81.80;;;;;;7392953;19;20306;-79
2022/06/13 09:27:20;;;;;;;1.40;1.20;;;22.90;82.60;;;;;;7286084;19;2004231;-80
2022/06/13 09:29:52;;;;;;;1.70;1.23;;;22.50;82.20;;;;;;7383584;19;20365;-80
2022/06/13 09:32:20;;;;;;;1.25;1.15;;;22.60;84.10;;;;;;7382674;19;20326;-79
2022/06/13 09:34:55;;;;;;;1.95;1.40;;;22.70;79.60;;;;;;7389874;19;20296;-79
2022/06/13 09:37:28;;;;;;;3.70;1.47;;;23.10;80.00;;;;;;7283187;19;2004257;-79
2022/06/13 09:39:56;;;;;;;1.20;1.10;;;23.20;81.50;;;;;;7390271;19;20393;-80
2022/06/13 09:42:36;;;;;;;2.20;1.47;;;23.20;80.10;;;;;;7371130;19;20388;-81
2022/06/13 09:45:29;;;;;;;1.63;1.30;;;23.00;78.80;;;;;;7393700;19;20335;-80
2022/06/13 09:48:13;;;;;;;2.10;1.35;;;22.70;79.40;;;;;;7256684;19;2004206;-81
2022/06/13 09:50:43;;;;;;;1.47;1.30;;;23.20;79.90;;;;;;7403213;19;20360;-80
2022/06/13 09:53:22;;;;;;;2.70;1.40;;;23.40;80.10;;;;;;7392581;19;20316;-83
2022/06/13 09:56:42;;;;;;;2.63;1.40;;;23.70;76.80;;;;;;7396448;19;20312;-80
2022/06/13 09:59:33;;;;;;;2.95;1.23;;;23.70;77.90;;;;;;7170433;19;2004361;-81
2022/06/13 10:02:04;;;;;;;1.40;1.30;;;23.60;74.80;;;;;;7278526;19;2004267;-80
2022/06/13 10:04:41;;;;;;;2.97;1.40;;;24.00;72.90;;;;;;7385387;19;20327;-80
2022/06/13 10:07:20;;;;;;;2.77;1.40;;;24.40;77.30;;;;;;7365808;19;20345;-80
2022/06/13 10:10:23;;;;;;;2.50;1.50;;;24.40;73.70;;;;;;7404518;19;20309;-81
2022/06/13 10:13:19;;;;;;;1.77;1.30;;;23.90;69.40;;;;;;7133470;19;2004389;-81
2022/06/13 10:16:25;;;;;;;1.70;1.20;;;24.80;71.00;;;;;;7408777;19;20309;-81
2022/06/13 10:18:59;;;;;;;4.03;1.42;;;24.60;68.00;;;;;;7159754;19;2004366;-76
2022/06/13 10:21:34;;;;;;;2.47;1.50;;;24.20;69.30;;;;;;7367316;19;20349;-76
2022/06/13 10:24:13;;;;;;;1.75;1.33;;;23.80;66.00;;;;;;7372029;19;20353;-76
2022/06/13 10:26:56;;;;;;;2.15;1.50;;;23.80;66.60;;;;;;7371986;19;20336;-77
2022/06/13 10:29:25;;;;;;;1.60;1.40;;;24.40;69.00;;;;;;7277411;19;2019934;-79
2022/06/13 10:32:17;;;;;;;1.40;1.23;;;24.80;65.00;;;;;;7382074;19;20332;-78
2022/06/13 10:34:52;;;;;;;3.33;1.47;;;24.60;66.60;;;;;;7377287;19;20351;-78
2022/06/13 10:37:29;;;;;;;2.00;1.60;;;25.00;67.30;;;;;;7378068;19;20679;-78
2022/06/13 10:39:56;;;;;;;2.90;1.40;;;25.20;65.30;;;;;;7279386;19;2005832;-78
2022/06/13 10:42:23;;;;;;;3.00;1.23;;;25.80;62.50;;;;;;7378732;19;20345;-78
2022/06/13 10:44:49;;;;;;;2.30;1.48;;;26.10;64.00;;;;;;7381328;19;20336;-77
2022/06/13 10:47:19;;;;;;;2.43;1.30;;;26.00;65.60;;;;;;7378848;19;20324;-78
2022/06/13 10:50:07;;;;;;;3.05;1.30;;;25.80;61.90;;;;;;7380805;19;20411;-78
2022/06/13 10:52:43;;;;;;;1.92;1.20;;;25.80;63.50;;;;;;7274113;19;2019058;-78
2022/06/13 10:55:10;;;;;;;2.25;1.30;;;26.10;60.80;;;;;;7376332;19;20677;-77
2022/06/13 10:57:49;;;;;;;1.42;1.30;;;25.30;57.90;;;;;;7382809;19;20827;-77
2022/06/13 11:00:22;;;;;;;1.65;1.10;;;25.60;60.20;;;;;;7377155;19;20922;-77
2022/06/13 11:02:48;;;;;;;2.28;1.35;;;25.20;57.60;;;;;;7382549;19;20358;-78
2022/06/13 11:05:16;;;;;;;1.35;1.17;;;25.80;58.10;;;;;;7382030;19;20412;-78
2022/06/13 11:07:48;;;;;;;1.10;1.02;;;26.70;62.10;;;;;;7383382;19;20317;-78
2022/06/13 11:10:38;;;;;;;1.50;1.20;;;27.20;59.70;;;;;;7383801;19;20316;-79
2022/06/13 11:13:28;;;;;;;1.25;1.10;;;27.60;58.60;;;;;;7277744;19;2013772;-78
2022/06/13 11:24:49;;;;;;;2.80;1.35;;;26.70;52.70;;;;;;7383245;19;20316;-78
2022/06/13 11:27:41;;;;;;;1.40;1.20;;;27.60;54.10;;;;;;7380891;19;20718;-78
2022/06/13 11:30:25;;;;;;;3.92;1.50;;;28.00;54.90;;;;;;7276307;19;2004396;-78
2022/06/13 11:33:13;;;;;;;2.70;1.50;;;27.70;53.50;;;;;;7278210;19;2004306;-77
2022/06/13 11:35:46;;;;;;;1.10;1.10;;;27.50;52.30;;;;;;7375174;19;20352;-78
2022/06/13 11:38:20;;;;;;;1.48;1.33;;;28.30;54.00;;;;;;7380875;19;20301;-79
2022/06/13 11:41:01;;;;;;;3.28;1.25;;;28.60;52.90;;;;;;7381323;19;20385;-79
2022/06/13 11:43:45;;;;;;;2.95;1.30;;;28.60;53.50;;;;;;7278440;19;2004560;-78
2022/06/13 11:46:41;;;;;;;2.28;1.58;;;29.30;54.80;;;;;;7381859;19;20354;-78
2022/06/13 11:49:16;;;;;;;2.03;1.35;;;28.80;51.70;;;;;;7281907;19;2004391;-78
2022/06/13 11:52:02;;;;;;;1.50;1.40;;;28.00;51.00;;;;;;7380134;19;20946;-78
2022/06/13 11:54:46;;;;;;;1.75;1.33;;;27.90;54.60;;;;;;7275905;19;2005673;-78
2022/06/13 11:57:15;;;;;;;2.35;1.42;;;27.50;54.90;;;;;;7381804;19;20353;-77
2022/06/13 11:59:50;;;;;;;1.40;1.30;;;26.50;55.90;;;;;;7382976;19;20360;-78
2022/06/13 12:02:39;;;;;;;1.47;1.20;;;26.20;54.60;;;;;;7382585;19;20324;-78
2022/06/13 12:05:15;;;;;;;2.27;1.60;;;26.00;54.90;;;;;;7279837;19;2004155;-78
2022/06/13 12:08:02;;;;;;;1.67;1.30;;;25.90;54.80;;;;;;7382616;19;20356;-78
2022/06/13 12:10:35;;;;;;;1.75;1.40;;;25.50;55.60;;;;;;7279795;19;2004335;-78
2022/06/13 12:13:01;;;;;;;2.05;1.50;;;25.10;56.70;;;;;;7377210;19;20724;-78
2022/06/13 12:15:39;;;;;;;1.52;1.23;;;25.20;56.60;;;;;;7381673;19;22309;-79
2022/06/13 12:18:31;;;;;;;2.53;1.43;;;26.30;59.00;;;;;;7386536;19;20366;-78
2022/06/13 12:21:25;;;;;;;2.25;1.50;;;25.20;57.40;;;;;;7280512;19;2004313;-79
2022/06/13 12:24:08;;;;;;;1.67;1.40;;;26.20;58.10;;;;;;7280509;19;2004450;-78
2022/06/13 12:26:35;;;;;;;1.50;1.35;;;26.30;56.30;;;;;;7382584;19;20416;-78
2022/06/13 12:29:23;;;;;;;1.75;1.48;;;25.90;57.00;;;;;;7383582;19;20310;-77
2022/06/13 12:31:54;;;;;;;3.10;1.80;;;25.70;57.50;;;;;;7386880;19;20334;-78
2022/06/13 12:34:24;;;;;;;1.92;1.20;;;25.80;57.10;;;;;;7386942;19;20313;-79
2022/06/13 12:37:12;;;;;;;1.50;1.40;;;26.30;58.30;;;;;;7386363;19;20339;-78
2022/06/13 12:40:10;;;;;;;3.20;1.42;;;27.00;58.10;;;;;;7283518;19;2004433;-79
2022/06/13 12:43:00;;;;;;;1.50;1.40;;;26.60;54.40;;;;;;7284434;19;2004501;-79
2022/06/13 12:51:32;;;;;;;1.88;1.50;;;26.10;54.50;;;;;;7383553;19;20313;-78
2022/06/13 12:56:39;;;;;;;1.42;1.20;;;25.70;52.90;;;;;;7383442;19;20847;-80
2022/06/13 12:59:14;;;;;;;1.83;1.33;;;26.20;54.20;;;;;;7384603;19;20871;-78
2022/06/13 13:02:16;;;;;;;2.30;1.60;;;26.60;53.20;;;;;;7382651;19;20343;-76
2022/06/13 13:05:08;;;;;;;1.65;1.48;;;26.80;55.70;;;;;;7285154;19;2004444;-79
2022/06/13 13:07:48;;;;;;;6.37;1.53;;;25.30;52.40;;;;;;7279091;19;2004341;-78
2022/06/13 13:10:21;;;;;;;2.72;1.77;;;25.30;54.80;;;;;;7383157;19;20329;-77
2022/06/13 13:12:54;;;;;;;1.77;1.38;;;25.00;55.10;;;;;;7385995;19;20337;-78
2022/06/13 13:19:08;;;;;;;2.65;1.65;;;25.50;56.40;;;;;;7393100;19;20332;-88
2022/06/13 13:21:38;;;;;;;2.92;1.73;;;23.50;51.90;;;;;;7294961;19;2004472;-86
2022/06/13 13:24:22;;;;;;;3.03;1.50;;;24.30;56.60;;;;;;7396216;19;20380;-86
2022/06/13 13:26:58;;;;;;;6.90;1.70;;;23.90;57.40;;;;;;7398240;19;20309;-83
2022/06/13 13:29:42;;;;;;;1.88;1.35;;;24.10;58.70;;;;;;7297409;19;2004472;-81
2022/06/13 13:32:34;;;;;;;2.85;1.60;;;23.70;55.30;;;;;;7392915;19;20881;-86
2022/06/13 13:35:18;;;;;;;2.78;1.50;;;24.20;56.60;;;;;;7291091;19;2004515;-86
2022/06/13 13:37:48;;;;;;;2.35;1.52;;;24.10;55.40;;;;;;7391340;19;20400;-85
2022/06/13 13:40:42;;;;;;;2.17;1.50;;;24.10;58.20;;;;;;7395687;19;20313;-82
2022/06/13 13:43:26;;;;;;;1.70;1.30;;;23.70;58.00;;;;;;7293220;19;2004383;-80
2022/06/13 13:46:29;;;;;;;3.40;1.33;;;23.30;56.50;;;;;;7293070;19;2004416;-80
2022/06/13 13:49:01;;;;;;;2.50;1.80;;;23.60;57.90;;;;;;7287871;19;2004820;-85